WAAA/UPG METAR and TAF weather

Enter ICAO airport designator
Station Type Date Time Source
WAAA METAR 2021/07/26 15:30 UTC NOAA

WAAA 261530Z 11003KT 8000 FEW020 21/20 Q1011 NOSIG


Station Type Date Time Source
WAAA Decoded METAR 2021/07/26 15:30 UTC NOAA

Ujung Pandang / Hasanuddin, Indonesia (WAAA) 05-04S 119-33E 14M
Jul 26, 2021 - 11:30 AM EDT / 2021.07.26 1530 UTC
Wind: from the ESE (110 degrees) at 3 MPH (3 KT):0
Visibility: 4 mile(s):0
Sky conditions: mostly clear
Temperature: 69 F (21 C)
Dew Point: 68 F (20 C)
Relative Humidity: 94%
Pressure (altimeter): 29.85 in. Hg (1011 hPa)
ob: WAAA 261530Z 11003KT 8000 FEW020 21/20 Q1011 NOSIG
cycle: 15

Station Type Date Time Source
WAAA TAF 2021/07/26 12:39 UTC NOAA

TAF TAF WAAA 261100Z 2612/2718 15003KT 8000 FEW020
BECMG 2702/2704 28010KT

Example: see airport list